createdAt,value
2022-08-07T00:02:36.194Z,97309.59
2022-08-07T00:04:17.855Z,97305.22
2022-08-07T00:06:53.674Z,97305.56
2022-08-07T00:09:29.143Z,97306.73
2022-08-07T00:12:06.242Z,97305.11
2022-08-07T00:14:35.742Z,97306.16
2022-08-07T00:17:06.718Z,97309.20
2022-08-07T00:20:02.763Z,97308.83
2022-08-07T00:22:35.349Z,97308.67
2022-08-07T00:25:07.338Z,97310.85
2022-08-07T00:27:53.774Z,97307.95
2022-08-07T00:30:28.552Z,97311.02
2022-08-07T00:32:59.005Z,97310.84
2022-08-07T00:35:30.408Z,97308.52
2022-08-07T00:38:01.151Z,97312.88
2022-08-07T00:40:36.281Z,97314.37
2022-08-07T00:43:10.625Z,97316.66
2022-08-07T00:46:01.776Z,97319.80
2022-08-07T00:48:32.654Z,97320.70
2022-08-07T00:51:03.628Z,97320.05
2022-08-07T00:53:39.247Z,97324.59
2022-08-07T00:56:30.209Z,97325.02
2022-08-07T00:59:01.678Z,97324.44
2022-08-07T01:01:43.988Z,97321.45
2022-08-07T01:04:24.595Z,97319.23
2022-08-07T01:06:59.288Z,97314.43
2022-08-07T01:10:04.292Z,97312.70
2022-08-07T01:12:29.734Z,97319.97
2022-08-07T01:15:03.744Z,97319.52
2022-08-07T01:17:36.260Z,97323.61
2022-08-07T01:20:16.701Z,97322.08
2022-08-07T01:23:00.500Z,97317.87
2022-08-07T01:25:55.426Z,97317.55
2022-08-07T01:28:28.087Z,97315.00
2022-08-07T01:31:01.432Z,97315.30
2022-08-07T01:33:55.461Z,97313.17
2022-08-07T01:36:33.892Z,97315.81
2022-08-07T01:39:13.145Z,97319.78
2022-08-07T01:41:55.032Z,97322.48
2022-08-07T01:44:42.904Z,97321.69
2022-08-07T01:48:17.891Z,97322.17
2022-08-07T01:50:15.880Z,97319.09
2022-08-07T01:52:58.756Z,97320.59
2022-08-07T01:55:39.051Z,97318.91
2022-08-07T01:58:28.886Z,97319.34
2022-08-07T02:01:44.801Z,97320.56
2022-08-07T02:04:08.070Z,97322.63
2022-08-07T02:06:45.923Z,97330.08
2022-08-07T02:09:37.467Z,97332.21
2022-08-07T02:12:22.129Z,97328.62
2022-08-07T02:15:06.762Z,97328.98
2022-08-07T02:17:49.860Z,97324.91
2022-08-07T02:20:24.753Z,97325.85
2022-08-07T02:23:07.598Z,97323.23
2022-08-07T02:26:10.305Z,97325.07
2022-08-07T02:28:40.193Z,97324.00
2022-08-07T02:31:29.087Z,97322.16
2022-08-07T02:34:10.934Z,97324.48
2022-08-07T02:36:53.863Z,97325.00
2022-08-07T02:39:43.181Z,97325.13
2022-08-07T02:42:19.673Z,97323.68
2022-08-07T02:44:54.085Z,97326.91
2022-08-07T02:47:44.832Z,97327.73
2022-08-07T02:50:19.640Z,97330.10
2022-08-07T02:53:03.279Z,97332.14
2022-08-07T02:56:02.990Z,97329.23
2022-08-07T02:58:33.781Z,97335.92
2022-08-07T03:01:05.963Z,97338.49
2022-08-07T03:03:50.381Z,97336.51
2022-08-07T03:06:35.899Z,97340.68
2022-08-07T03:09:44.509Z,97341.90
2022-08-07T03:12:08.120Z,97345.13
2022-08-07T03:14:53.236Z,97345.36
2022-08-07T03:17:25.069Z,97349.20
2022-08-07T03:19:57.957Z,97351.84
2022-08-07T03:22:31.177Z,97355.22
2022-08-07T03:25:02.660Z,97355.47
2022-08-07T03:28:08.834Z,97359.86
2022-08-07T03:30:34.343Z,97359.64
2022-08-07T03:33:08.023Z,97355.20
2022-08-07T03:35:50.238Z,97355.84
2022-08-07T03:38:29.572Z,97359.96
2022-08-07T03:41:03.993Z,97359.04
2022-08-07T03:43:36.095Z,97363.36
2022-08-07T03:46:10.398Z,97363.59
2022-08-07T03:49:02.558Z,97365.27
2022-08-07T03:51:47.081Z,97367.30
2022-08-07T03:54:36.344Z,97368.21
2022-08-07T03:58:35.342Z,97371.20
2022-08-07T04:00:07.174Z,97367.32
2022-08-07T04:02:49.445Z,97370.38
2022-08-07T04:05:39.512Z,97375.66
2022-08-07T04:08:18.281Z,97372.52
2022-08-07T04:10:54.290Z,97373.69
2022-08-07T04:14:09.410Z,97373.63
2022-08-07T04:16:34.343Z,97378.48
2022-08-07T04:19:12.820Z,97384.87
2022-08-07T04:21:59.043Z,97383.33
2022-08-07T04:24:38.735Z,97388.95
2022-08-07T04:27:15.251Z,97390.46
2022-08-07T04:30:01.629Z,97387.24
2022-08-07T04:32:47.948Z,97385.66
2022-08-07T04:35:19.928Z,97387.87
2022-08-07T04:38:03.017Z,97389.23
2022-08-07T04:40:51.338Z,97392.48
2022-08-07T04:44:12.715Z,97390.84
2022-08-07T04:46:34.333Z,97399.23
2022-08-07T04:49:18.084Z,97398.14
2022-08-07T04:52:26.488Z,97398.02
2022-08-07T04:55:15.370Z,97397.38
2022-08-07T04:58:11.625Z,97402.46
2022-08-07T05:01:13.494Z,97402.47
2022-08-07T05:04:12.327Z,97404.89
2022-08-07T05:06:54.779Z,97404.80
2022-08-07T05:10:01.420Z,97406.77
2022-08-07T05:12:51.458Z,97412.05
2022-08-07T05:15:34.589Z,97414.10
2022-08-07T05:18:14.546Z,97418.81
2022-08-07T05:20:48.365Z,97418.61
2022-08-07T05:23:30.009Z,97421.09
2022-08-07T05:26:15.677Z,97416.09
2022-08-07T05:28:53.482Z,97414.66
2022-08-07T05:31:35.347Z,97415.23
2022-08-07T05:34:15.667Z,97416.25
2022-08-07T05:36:53.186Z,97413.08
2022-08-07T05:40:17.404Z,97416.39
2022-08-07T05:42:33.794Z,97414.44
2022-08-07T05:45:25.845Z,97418.42
2022-08-07T05:48:02.330Z,97417.45
2022-08-07T05:50:43.818Z,97420.86
2022-08-07T05:54:12.732Z,97421.60
2022-08-07T05:56:05.888Z,97420.17
2022-08-07T05:58:42.130Z,97421.03
2022-08-07T06:01:23.422Z,97423.46
2022-08-07T06:04:01.128Z,97413.22
2022-08-07T06:06:37.007Z,97417.35
2022-08-07T06:09:08.993Z,97415.67
2022-08-07T06:11:43.637Z,97413.74
2022-08-07T06:14:20.877Z,97416.06
2022-08-07T06:16:55.856Z,97420.65
2022-08-07T06:19:58.314Z,97422.05
2022-08-07T06:22:24.129Z,97426.30
2022-08-07T06:25:19.709Z,97419.88
2022-08-07T06:28:01.686Z,97418.64
2022-08-07T06:30:37.290Z,97418.70
2022-08-07T06:33:16.701Z,97418.97
2022-08-07T06:36:13.326Z,97419.13
2022-08-07T06:38:38.229Z,97413.70
2022-08-07T06:41:13.283Z,97416.35
2022-08-07T06:44:01.438Z,97417.67
2022-08-07T06:46:36.267Z,97412.96
2022-08-07T06:49:08.822Z,97409.02
2022-08-07T06:51:49.655Z,97412.23
2022-08-07T06:55:32.936Z,97413.84
2022-08-07T06:57:11.994Z,97417.04
2022-08-07T07:00:11.707Z,97417.52
2022-08-07T07:02:48.475Z,97418.55
2022-08-07T07:06:02.960Z,97417.77
2022-08-07T07:08:18.482Z,97414.84
2022-08-07T07:10:57.344Z,97413.70
2022-08-07T07:13:58.327Z,97413.98
2022-08-07T07:16:39.248Z,97411.94
2022-08-07T07:19:57.051Z,97410.73
2022-08-07T07:22:36.673Z,97413.35
2022-08-07T07:26:31.382Z,97414.36
2022-08-07T07:28:42.118Z,97414.44
2022-08-07T07:31:21.477Z,97421.98
2022-08-07T07:33:57.095Z,97421.53
2022-08-07T07:36:32.316Z,97425.23
2022-08-07T07:39:03.908Z,97422.25
2022-08-07T07:42:01.903Z,97422.63
2022-08-07T07:44:26.706Z,97427.03
2022-08-07T07:47:12.074Z,97431.77
2022-08-07T07:50:35.772Z,97433.11
2022-08-07T07:52:40.035Z,97434.34
2022-08-07T07:55:10.920Z,97430.95
2022-08-07T07:57:51.683Z,97429.96
2022-08-07T08:00:29.987Z,97427.65
2022-08-07T08:03:08.227Z,97425.60
2022-08-07T08:05:50.846Z,97427.32
2022-08-07T08:08:34.346Z,97421.64
2022-08-07T08:11:08.031Z,97416.98
2022-08-07T08:13:52.862Z,97418.54
2022-08-07T08:16:38.187Z,97419.52
2022-08-07T08:20:15.629Z,97416.48
2022-08-07T08:22:19.314Z,97418.20
2022-08-07T08:25:24.619Z,97419.86
2022-08-07T08:28:03.690Z,97423.02
2022-08-07T08:30:42.470Z,97428.45
2022-08-07T08:33:18.975Z,97429.59
2022-08-07T08:35:56.096Z,97428.77
2022-08-07T08:38:29.879Z,97425.36
2022-08-07T08:41:58.325Z,97417.46
2022-08-07T08:44:45.697Z,97422.47
2022-08-07T08:47:56.079Z,97421.85
2022-08-07T08:50:39.498Z,97426.05
2022-08-07T08:53:20.638Z,97427.05
2022-08-07T08:55:59.363Z,97420.98
2022-08-07T08:59:06.651Z,97416.89
2022-08-07T09:02:14.360Z,97412.60
2022-08-07T09:05:03.401Z,97409.98
2022-08-07T09:07:57.576Z,97409.70
2022-08-07T09:10:45.524Z,97410.44
2022-08-07T09:13:37.132Z,97411.02
2022-08-07T09:16:30.824Z,97410.86
2022-08-07T09:19:51.418Z,97410.36
2022-08-07T09:24:32.613Z,97409.36
2022-08-07T09:25:54.228Z,97407.71
2022-08-07T09:30:05.063Z,97406.47
2022-08-07T09:32:03.426Z,97396.59
2022-08-07T09:36:04.205Z,97398.99
2022-08-07T09:38:54.637Z,97405.16
2022-08-07T09:41:58.855Z,97394.84
2022-08-07T09:47:23.984Z,97394.77
2022-08-07T09:50:02.605Z,97393.14
2022-08-07T09:52:35.262Z,97389.63
2022-08-07T09:55:36.885Z,97380.77
2022-08-07T09:58:51.284Z,97375.99
2022-08-07T10:02:04.860Z,97374.57
2022-08-07T10:05:12.381Z,97377.62
2022-08-07T10:07:59.792Z,97377.02
2022-08-07T10:11:17.199Z,97374.70
2022-08-07T10:14:31.199Z,97377.85
2022-08-07T10:17:16.849Z,97373.27
2022-08-07T10:20:12.790Z,97368.77
2022-08-07T10:23:10.897Z,97370.65
2022-08-07T10:25:58.692Z,97367.65
2022-08-07T10:28:49.473Z,97362.39
2022-08-07T10:31:53.996Z,97356.67
2022-08-07T10:34:54.736Z,97358.19
2022-08-07T10:38:09.830Z,97357.61
2022-08-07T10:40:56.677Z,97355.25
2022-08-07T10:43:34.708Z,97350.48
2022-08-07T10:46:25.217Z,97352.10
2022-08-07T10:49:15.179Z,97350.59
2022-08-07T10:52:13.857Z,97351.46
2022-08-07T10:55:02.059Z,97351.45
2022-08-07T10:57:42.675Z,97347.98
2022-08-07T11:00:36.951Z,97347.17
2022-08-07T11:03:28.144Z,97344.48
2022-08-07T11:06:40.559Z,97341.12
2022-08-07T11:10:09.318Z,97337.26
2022-08-07T11:12:39.271Z,97330.87
2022-08-07T11:15:31.515Z,97325.09
2022-08-07T11:18:15.247Z,97321.75
2022-08-07T11:21:03.393Z,97319.59
2022-08-07T11:23:58.075Z,97316.59
2022-08-07T11:26:48.147Z,97312.98
2022-08-07T11:29:42.193Z,97305.13
2022-08-07T11:32:25.368Z,97301.27
2022-08-07T11:35:03.255Z,97302.80
2022-08-07T11:37:58.067Z,97298.59
2022-08-07T11:40:50.148Z,97289.48
2022-08-07T11:44:11.812Z,97287.58
2022-08-07T11:47:06.181Z,97289.84
2022-08-07T11:50:31.964Z,97287.00
2022-08-07T11:53:16.781Z,97283.23
2022-08-07T11:56:27.306Z,97276.32
2022-08-07T12:00:07.996Z,97274.77
2022-08-07T12:02:40.260Z,97268.67
2022-08-07T12:05:49.244Z,97273.02
2022-08-07T12:08:31.901Z,97274.55
2022-08-07T12:11:21.119Z,97267.70
2022-08-07T12:14:29.876Z,97268.80
2022-08-07T12:17:09.062Z,97264.96
2022-08-07T12:20:08.819Z,97265.05
2022-08-07T12:23:14.536Z,97258.10
2022-08-07T12:26:05.989Z,97257.05
2022-08-07T12:28:56.861Z,97249.67
2022-08-07T12:31:52.329Z,97246.12
2022-08-07T12:34:25.993Z,97246.36
2022-08-07T12:36:58.813Z,97242.23
2022-08-07T12:39:42.363Z,97235.20
2022-08-07T12:42:18.698Z,97237.06
2022-08-07T12:45:05.786Z,97232.81
2022-08-07T12:47:57.292Z,97226.60
2022-08-07T12:50:49.198Z,97224.96
2022-08-07T12:53:19.149Z,97225.23
2022-08-07T12:56:23.855Z,97226.65
2022-08-07T12:58:59.607Z,97224.02
2022-08-07T13:02:09.975Z,97222.13
2022-08-07T13:05:14.670Z,97219.39
2022-08-07T13:08:11.943Z,97219.71
2022-08-07T13:11:19.932Z,97221.65
2022-08-07T13:14:04.472Z,97219.24
2022-08-07T13:16:53.403Z,97220.19
2022-08-07T13:20:06.646Z,97216.80
2022-08-07T13:22:56.133Z,97218.33
2022-08-07T13:25:50.628Z,97219.09
2022-08-07T13:28:35.926Z,97219.82
2022-08-07T13:31:18.908Z,97220.16
2022-08-07T13:34:33.503Z,97218.83
2022-08-07T13:37:20.778Z,97219.33
2022-08-07T13:40:36.701Z,97214.08
2022-08-07T13:43:16.081Z,97214.97
2022-08-07T13:46:12.195Z,97217.31
2022-08-07T13:48:51.868Z,97211.30
2022-08-07T13:52:22.519Z,97214.67
2022-08-07T13:54:33.542Z,97211.40
2022-08-07T13:57:12.070Z,97208.31
2022-08-07T13:59:53.169Z,97209.56
2022-08-07T14:02:39.492Z,97207.16
2022-08-07T14:05:24.153Z,97208.45
2022-08-07T14:08:01.528Z,97211.61
2022-08-07T14:10:41.750Z,97210.45
2022-08-07T14:13:19.810Z,97211.54
2022-08-07T14:16:02.586Z,97207.05
2022-08-07T14:18:50.011Z,97207.55
2022-08-07T14:22:01.860Z,97204.02
2022-08-07T14:24:41.395Z,97207.40
2022-08-07T14:28:11.704Z,97208.27
2022-08-07T14:30:12.322Z,97212.59
2022-08-07T14:32:47.667Z,97210.92
2022-08-07T14:35:45.307Z,97214.66
2022-08-07T14:38:26.271Z,97224.77
2022-08-07T14:41:14.905Z,97237.91
2022-08-07T14:43:57.743Z,97241.21
2022-08-07T14:49:57.284Z,97243.47
2022-08-07T14:52:27.334Z,97246.43
2022-08-07T14:55:00.891Z,97243.73
2022-08-07T14:57:58.648Z,97246.18
2022-08-07T15:00:30.873Z,97246.33
2022-08-07T15:03:19.541Z,97250.90
2022-08-07T15:05:54.863Z,97259.95
2022-08-07T15:08:49.734Z,97261.95
2022-08-07T15:11:53.192Z,97256.95
2022-08-07T15:14:34.377Z,97259.98
2022-08-07T15:17:33.005Z,97272.95
2022-08-07T15:20:33.689Z,97275.33
2022-08-07T15:23:20.094Z,97274.44
2022-08-07T15:25:56.819Z,97271.51
2022-08-07T15:28:37.999Z,97279.33
2022-08-07T15:32:01.362Z,97280.27
2022-08-07T15:34:06.397Z,97278.47
2022-08-07T15:37:04.174Z,97287.02
2022-08-07T15:39:58.972Z,97291.80
2022-08-07T15:45:55.467Z,97288.23
2022-08-07T15:48:35.016Z,97289.90
2022-08-07T15:51:11.976Z,97296.35
2022-08-07T15:53:53.148Z,97291.85
2022-08-07T15:56:51.373Z,97295.66
2022-08-07T15:59:39.301Z,97300.15
2022-08-07T16:02:23.475Z,97295.15
2022-08-07T16:05:15.924Z,97293.52
2022-08-07T16:08:31.977Z,97287.48
2022-08-07T16:10:48.878Z,97282.82
2022-08-07T16:13:57.756Z,97285.16
2022-08-07T16:16:42.906Z,97281.23
2022-08-07T16:20:05.646Z,97282.14
2022-08-07T16:22:55.464Z,97282.74
2022-08-07T16:25:55.058Z,97280.77
2022-08-07T16:29:18.246Z,97277.92
2022-08-07T16:31:58.638Z,97278.20
2022-08-07T16:34:45.371Z,97276.88
2022-08-07T16:38:04.607Z,97278.60
2022-08-07T16:41:02.120Z,97283.50
2022-08-07T16:44:04.342Z,97287.84
2022-08-07T16:47:38.310Z,97292.20
2022-08-07T16:50:38.699Z,97294.66
2022-08-07T16:53:48.037Z,97295.64
2022-08-07T16:56:21.278Z,97302.78
2022-08-07T16:59:10.927Z,97303.55
2022-08-07T17:02:03.206Z,97299.02
2022-08-07T17:04:58.620Z,97302.31
2022-08-07T17:07:55.636Z,97313.00
2022-08-07T17:10:54.338Z,97314.75
2022-08-07T17:14:19.555Z,97315.82
2022-08-07T17:16:58.729Z,97315.14
2022-08-07T17:20:00.945Z,97320.14
2022-08-07T17:22:42.437Z,97319.20
2022-08-07T17:25:45.745Z,97323.63
2022-08-07T17:28:19.681Z,97321.81
2022-08-07T17:31:15.985Z,97327.63
2022-08-07T17:34:17.969Z,97327.88
2022-08-07T17:36:59.995Z,97333.13
2022-08-07T17:39:58.166Z,97339.58
2022-08-07T17:43:14.861Z,97342.86
2022-08-07T17:46:14.413Z,97345.87
2022-08-07T17:49:02.421Z,97356.73
2022-08-07T17:52:01.179Z,97361.18
2022-08-07T17:54:53.828Z,97368.11
2022-08-07T17:57:56.308Z,97369.57
2022-08-07T18:00:34.646Z,97372.52
2022-08-07T18:04:04.250Z,97376.38
2022-08-07T18:06:42.964Z,97375.88
2022-08-07T18:10:06.502Z,97374.80
2022-08-07T18:12:34.438Z,97378.03
2022-08-07T18:15:13.364Z,97380.46
2022-08-07T18:21:02.639Z,97381.81
2022-08-07T18:21:38.186Z,97382.60
2022-08-07T18:24:33.826Z,97382.98
2022-08-07T18:27:06.345Z,97390.90
2022-08-07T18:30:06.280Z,97396.49
2022-08-07T18:33:15.125Z,97403.77
2022-08-07T18:36:17.189Z,97409.35
2022-08-07T18:40:08.819Z,97416.11
2022-08-07T18:42:16.906Z,97415.55
2022-08-07T18:45:44.819Z,97413.35
2022-08-07T18:50:05.502Z,97416.81
2022-08-07T18:52:52.478Z,97418.34
2022-08-07T18:54:30.468Z,97417.75
2022-08-07T18:57:29.478Z,97419.83
2022-08-07T19:00:32.098Z,97417.13
2022-08-07T19:03:18.271Z,97421.55
2022-08-07T19:06:03.482Z,97418.65
2022-08-07T19:08:58.633Z,97419.26
2022-08-07T19:11:37.472Z,97419.33
2022-08-07T19:14:20.319Z,97418.84
2022-08-07T19:17:08.047Z,97420.58
2022-08-07T19:19:58.954Z,97424.60
2022-08-07T19:22:51.915Z,97422.68
2022-08-07T19:26:22.930Z,97429.34
2022-08-07T19:28:30.269Z,97426.38
2022-08-07T19:31:59.820Z,97428.11
2022-08-07T19:34:32.374Z,97432.66
2022-08-07T19:37:10.245Z,97431.42
2022-08-07T19:39:57.435Z,97430.45
2022-08-07T19:42:42.851Z,97425.54
2022-08-07T19:46:06.231Z,97427.78
2022-08-07T19:48:18.740Z,97432.38
2022-08-07T19:50:54.491Z,97433.82
2022-08-07T19:54:32.670Z,97436.91
2022-08-07T19:58:00.890Z,97436.55
2022-08-07T19:59:21.851Z,97436.50
2022-08-07T20:01:59.242Z,97437.08
2022-08-07T20:04:37.663Z,97438.86
2022-08-07T20:07:10.259Z,97442.48
2022-08-07T20:10:36.477Z,97436.41
2022-08-07T20:12:43.088Z,97439.23
2022-08-07T20:15:19.071Z,97438.52
2022-08-07T20:18:01.709Z,97448.11
2022-08-07T20:20:35.277Z,97447.52
2022-08-07T20:23:23.014Z,97450.27
2022-08-07T20:26:09.766Z,97454.85
2022-08-07T20:28:40.442Z,97451.70
2022-08-07T20:31:21.187Z,97458.31
2022-08-07T20:33:57.544Z,97455.96
2022-08-07T20:36:30.009Z,97457.88
2022-08-07T20:39:17.820Z,97457.77
2022-08-07T20:41:55.265Z,97457.29
2022-08-07T20:44:34.561Z,97456.41
2022-08-07T20:47:09.688Z,97463.36
2022-08-07T20:49:57.799Z,97459.91
2022-08-07T20:52:51.532Z,97460.27
2022-08-07T20:55:26.059Z,97461.47
2022-08-07T20:58:03.986Z,97459.09
2022-08-07T21:00:45.679Z,97456.87
2022-08-07T21:03:18.910Z,97460.38
2022-08-07T21:06:21.765Z,97463.52
2022-08-07T21:09:13.966Z,97467.24
2022-08-07T21:11:50.882Z,97470.16
2022-08-07T21:14:34.040Z,97475.10
2022-08-07T21:18:03.031Z,97477.17
2022-08-07T21:20:05.565Z,97479.83
2022-08-07T21:22:45.162Z,97474.23
2022-08-07T21:25:20.667Z,97483.52
2022-08-07T21:28:04.703Z,97485.01
2022-08-07T21:30:47.415Z,97487.96
2022-08-07T21:33:41.535Z,97489.33
2022-08-07T21:36:32.735Z,97493.95
2022-08-07T21:39:47.850Z,97492.48
2022-08-07T21:42:45.998Z,97491.13
2022-08-07T21:46:08.946Z,97490.55
2022-08-07T21:48:26.957Z,97495.67
2022-08-07T21:51:24.952Z,97497.52
2022-08-07T21:54:22.285Z,97499.80
2022-08-07T21:57:39.936Z,97500.67
2022-08-07T22:00:22.949Z,97505.56
2022-08-07T22:02:59.232Z,97505.46
2022-08-07T22:05:45.208Z,97505.35
2022-08-07T22:08:20.915Z,97503.47
2022-08-07T22:11:00.118Z,97506.52
2022-08-07T22:13:50.375Z,97505.04
2022-08-07T22:16:46.906Z,97507.33
2022-08-07T22:19:52.056Z,97507.68
2022-08-07T22:22:36.739Z,97510.57
2022-08-07T22:25:36.689Z,97512.46
2022-08-07T22:28:32.503Z,97507.90
2022-08-07T22:31:58.937Z,97505.60
2022-08-07T22:34:33.180Z,97512.79
2022-08-07T22:37:15.104Z,97512.96
2022-08-07T22:39:59.517Z,97516.12
2022-08-07T22:42:34.218Z,97514.98
2022-08-07T22:45:10.965Z,97512.90
2022-08-07T22:48:56.239Z,97515.71
2022-08-07T22:51:36.705Z,97511.19
2022-08-07T22:54:32.796Z,97514.81
2022-08-07T22:57:17.129Z,97518.45
2022-08-07T22:59:52.933Z,97520.29
2022-08-07T23:02:49.275Z,97518.08
2022-08-07T23:06:07.612Z,97517.95
2022-08-07T23:08:46.292Z,97523.69
2022-08-07T23:11:48.554Z,97522.58
2022-08-07T23:14:22.747Z,97521.58
2022-08-07T23:17:03.946Z,97520.90
2022-08-07T23:20:05.157Z,97519.35
2022-08-07T23:23:09.771Z,97518.31
2022-08-07T23:26:01.316Z,97524.69
2022-08-07T23:29:16.576Z,97527.91
2022-08-07T23:34:20.708Z,97522.63
2022-08-07T23:35:13.383Z,97527.91
2022-08-07T23:38:14.472Z,97527.89
2022-08-07T23:40:51.712Z,97530.24
2022-08-07T23:43:51.368Z,97526.36
2022-08-07T23:47:07.592Z,97528.66
2022-08-07T23:50:02.065Z,97526.55
2022-08-07T23:53:00.046Z,97528.85
2022-08-07T23:55:55.519Z,97530.27
2022-08-07T23:58:37.334Z,97530.98
